createdAt,value
2019-06-26T00:01:10.857Z,23.00
2019-06-26T00:03:41.183Z,23.00
2019-06-26T00:06:11.363Z,23.00
2019-06-26T00:08:41.557Z,23.00
2019-06-26T00:11:11.739Z,22.90
2019-06-26T00:13:41.953Z,22.90
2019-06-26T00:16:12.133Z,22.90
2019-06-26T00:18:42.467Z,22.90
2019-06-26T00:21:12.680Z,22.90
2019-06-26T00:23:42.886Z,22.80
2019-06-26T00:26:13.060Z,22.80
2019-06-26T00:28:43.258Z,22.80
2019-06-26T00:31:13.463Z,22.80
2019-06-26T00:33:43.633Z,22.70
2019-06-26T00:36:14.513Z,22.70
2019-06-26T00:38:44.699Z,22.60
2019-06-26T00:41:14.882Z,22.60
2019-06-26T00:43:45.079Z,22.60
2019-06-26T00:46:15.278Z,22.50
2019-06-26T00:48:45.445Z,22.50
2019-06-26T00:51:27.784Z,22.40
2019-06-26T00:53:58.544Z,22.40
2019-06-26T00:56:28.738Z,22.30
2019-06-26T00:58:58.968Z,22.30
2019-06-26T01:01:29.174Z,22.20
2019-06-26T01:04:01.034Z,22.30
2019-06-26T01:06:43.066Z,22.30
2019-06-26T01:09:14.622Z,22.20
2019-06-26T01:11:45.194Z,22.20
2019-06-26T01:14:15.472Z,22.20
2019-06-26T01:16:45.698Z,22.10
2019-06-26T01:19:15.921Z,22.10
2019-06-26T01:21:46.138Z,22.10
2019-06-26T01:24:16.347Z,22.10
2019-06-26T01:26:46.534Z,22.10
2019-06-26T01:29:16.742Z,22.00
2019-06-26T01:31:46.951Z,22.00
2019-06-26T01:34:17.162Z,22.00
2019-06-26T01:36:47.373Z,22.00
2019-06-26T01:39:17.557Z,21.90
2019-06-26T01:41:47.798Z,21.90
2019-06-26T01:44:18.019Z,21.90
2019-06-26T01:46:48.243Z,21.80
2019-06-26T01:49:18.473Z,21.80
2019-06-26T01:51:48.685Z,21.70
2019-06-26T01:54:18.915Z,21.70
2019-06-26T01:56:49.129Z,21.70
2019-06-26T01:59:19.326Z,21.70
2019-06-26T02:01:49.541Z,21.60
2019-06-26T02:04:19.808Z,21.60
2019-06-26T02:06:50.002Z,21.60
2019-06-26T02:09:20.200Z,21.60
2019-06-26T02:11:50.413Z,21.60
2019-06-26T02:14:30.587Z,21.60
2019-06-26T02:16:52.513Z,21.60
2019-06-26T02:19:22.710Z,21.60
2019-06-26T02:21:52.925Z,21.60
2019-06-26T02:24:23.147Z,21.50
2019-06-26T02:26:53.359Z,21.50
2019-06-26T02:29:23.579Z,21.50
2019-06-26T02:31:53.797Z,21.40
2019-06-26T02:34:24.014Z,21.40
2019-06-26T02:36:54.398Z,21.40
2019-06-26T02:39:24.615Z,21.30
2019-06-26T02:41:54.891Z,21.30
2019-06-26T02:44:25.115Z,21.30
2019-06-26T02:46:55.385Z,21.30
2019-06-26T02:49:25.582Z,21.20
2019-06-26T02:51:55.787Z,21.20
2019-06-26T02:54:25.996Z,21.20
2019-06-26T02:56:56.267Z,21.20
2019-06-26T02:59:26.446Z,21.20
2019-06-26T03:01:56.699Z,21.10
2019-06-26T03:04:26.880Z,21.10
2019-06-26T03:06:57.151Z,21.10
2019-06-26T03:09:27.342Z,21.10
2019-06-26T03:11:57.626Z,21.00
2019-06-26T03:14:27.832Z,21.00
2019-06-26T03:16:58.035Z,21.00
2019-06-26T03:19:28.246Z,21.00
2019-06-26T03:21:58.517Z,21.00
2019-06-26T03:24:28.729Z,20.90
2019-06-26T03:26:58.949Z,20.90
2019-06-26T03:29:29.168Z,20.90
2019-06-26T03:31:59.378Z,20.90
2019-06-26T03:34:29.628Z,20.90
2019-06-26T03:36:59.849Z,20.90
2019-06-26T03:39:30.154Z,20.90
2019-06-26T03:42:00.457Z,20.90
2019-06-26T03:44:30.661Z,20.90
2019-06-26T03:47:00.882Z,20.90
2019-06-26T03:49:31.142Z,20.80
2019-06-26T03:52:01.369Z,20.80
2019-06-26T03:54:31.564Z,20.80
2019-06-26T03:57:01.839Z,20.70
2019-06-26T03:59:32.129Z,20.80
2019-06-26T04:02:02.348Z,20.70
2019-06-26T04:04:32.540Z,20.70
2019-06-26T04:07:02.754Z,20.70
2019-06-26T04:09:32.958Z,20.70
2019-06-26T04:12:03.948Z,20.70
2019-06-26T04:14:34.189Z,20.70
2019-06-26T04:17:04.508Z,20.70
2019-06-26T04:19:34.774Z,20.70
2019-06-26T04:22:05.008Z,20.80
2019-06-26T04:24:35.222Z,20.80
2019-06-26T04:27:05.499Z,20.90
2019-06-26T04:29:35.730Z,20.90
2019-06-26T04:32:06.057Z,20.90
2019-06-26T04:34:36.298Z,21.00
2019-06-26T04:37:06.493Z,21.00
2019-06-26T04:39:36.729Z,21.00
2019-06-26T04:42:07.044Z,21.10
2019-06-26T04:44:37.257Z,21.10
2019-06-26T04:47:07.475Z,21.20
2019-06-26T04:49:37.666Z,21.20
2019-06-26T04:52:20.201Z,21.20
2019-06-26T04:54:50.391Z,21.20
2019-06-26T04:57:20.616Z,21.20
2019-06-26T04:59:51.158Z,21.30
2019-06-26T05:02:21.366Z,21.30
2019-06-26T05:04:51.649Z,21.40
2019-06-26T05:07:21.841Z,21.40
2019-06-26T05:09:52.350Z,21.50
2019-06-26T05:12:22.537Z,21.50
2019-06-26T05:14:52.725Z,21.60
2019-06-26T05:17:22.990Z,21.70
2019-06-26T05:19:53.175Z,21.70
2019-06-26T05:22:23.407Z,21.80
2019-06-26T05:24:53.666Z,21.80
2019-06-26T05:27:24.003Z,21.90
2019-06-26T05:29:55.241Z,21.90
2019-06-26T05:32:25.441Z,22.00
2019-06-26T05:34:55.669Z,22.10
2019-06-26T05:37:25.904Z,22.10
2019-06-26T05:39:56.095Z,22.20
2019-06-26T05:42:26.335Z,22.20
2019-06-26T05:44:56.565Z,22.30
2019-06-26T05:47:26.819Z,22.30
2019-06-26T05:49:57.049Z,22.30
2019-06-26T05:52:27.239Z,22.30
2019-06-26T05:54:57.473Z,22.50
2019-06-26T05:57:27.687Z,22.50
2019-06-26T05:59:58.099Z,22.60
2019-06-26T06:02:28.305Z,22.60
2019-06-26T06:04:58.721Z,22.70
2019-06-26T06:07:29.773Z,22.70
2019-06-26T06:10:00.007Z,22.70
2019-06-26T06:12:30.193Z,22.80
2019-06-26T06:15:00.429Z,22.80
2019-06-26T06:17:30.693Z,22.90
2019-06-26T06:20:00.932Z,23.00
2019-06-26T06:22:31.289Z,23.00
2019-06-26T06:25:01.980Z,23.10
2019-06-26T06:27:32.427Z,23.20
2019-06-26T06:30:02.933Z,23.20
2019-06-26T06:32:33.121Z,23.30
2019-06-26T06:35:03.637Z,23.30
2019-06-26T06:37:33.974Z,23.40
2019-06-26T06:40:07.499Z,23.50
2019-06-26T06:42:37.728Z,23.50
2019-06-26T06:45:08.355Z,23.60
2019-06-26T06:47:38.571Z,23.70
2019-06-26T06:50:09.026Z,23.70
2019-06-26T06:52:39.375Z,23.80
2019-06-26T06:55:10.016Z,23.90
2019-06-26T06:57:40.267Z,23.90
2019-06-26T07:00:10.904Z,24.00
2019-06-26T07:02:41.220Z,24.10
2019-06-26T07:05:11.750Z,24.20
2019-06-26T07:07:42.038Z,24.20
2019-06-26T07:10:12.768Z,24.30
2019-06-26T07:12:42.984Z,24.40
2019-06-26T07:15:13.534Z,24.50
2019-06-26T07:17:43.819Z,24.60
2019-06-26T07:20:14.376Z,24.60
2019-06-26T07:22:44.578Z,24.70
2019-06-26T07:25:15.524Z,24.80
2019-06-26T07:27:45.802Z,24.80
2019-06-26T07:30:16.536Z,25.00
2019-06-26T07:32:46.894Z,25.10
2019-06-26T07:35:17.371Z,25.10
2019-06-26T07:37:47.574Z,25.20
2019-06-26T07:40:18.641Z,25.30
2019-06-26T07:42:48.864Z,25.40
2019-06-26T07:45:19.231Z,25.40
2019-06-26T07:47:49.408Z,25.50
2019-06-26T07:50:19.809Z,25.60
2019-06-26T07:52:50.039Z,25.70
2019-06-26T07:55:20.742Z,25.80
2019-06-26T07:57:50.966Z,25.90
2019-06-26T08:00:21.722Z,26.00
2019-06-26T08:02:51.922Z,26.00
2019-06-26T08:05:22.156Z,26.10
2019-06-26T08:07:52.380Z,26.20
2019-06-26T08:10:22.615Z,26.30
2019-06-26T08:12:53.259Z,26.40
2019-06-26T08:15:23.688Z,26.40
2019-06-26T08:18:00.344Z,26.50
2019-06-26T08:20:25.886Z,26.50
2019-06-26T08:22:56.120Z,26.60
2019-06-26T08:25:26.344Z,26.70
2019-06-26T08:27:56.553Z,26.80
2019-06-26T08:30:26.953Z,26.90
2019-06-26T08:32:57.132Z,27.00
2019-06-26T08:35:27.385Z,27.10
2019-06-26T08:38:09.981Z,27.10
2019-06-26T08:40:29.536Z,27.20
2019-06-26T08:42:59.740Z,27.20
2019-06-26T08:45:30.015Z,27.30
2019-06-26T08:48:16.400Z,27.40
2019-06-26T08:50:32.110Z,27.50
2019-06-26T08:53:02.579Z,27.60
2019-06-26T08:55:32.928Z,27.70
2019-06-26T08:58:03.148Z,27.80
2019-06-26T09:00:33.404Z,27.90
2019-06-26T09:03:04.183Z,28.00
2019-06-26T09:05:47.505Z,28.10
2019-06-26T09:08:06.755Z,28.20
2019-06-26T09:10:37.214Z,28.20
2019-06-26T09:13:07.468Z,28.20
2019-06-26T09:15:37.705Z,28.30
2019-06-26T09:18:07.948Z,28.40
2019-06-26T09:20:40.398Z,28.50
2019-06-26T09:23:10.707Z,28.50
2019-06-26T09:25:40.920Z,28.60
2019-06-26T09:28:11.121Z,28.60
2019-06-26T09:30:41.585Z,28.60
2019-06-26T09:33:11.790Z,28.60
2019-06-26T09:35:41.979Z,28.70
2019-06-26T09:38:12.276Z,28.80
2019-06-26T09:40:42.499Z,28.80
2019-06-26T09:43:12.740Z,28.90
2019-06-26T09:45:42.942Z,29.00
2019-06-26T09:48:13.165Z,29.10
2019-06-26T09:50:43.384Z,29.10
2019-06-26T09:53:13.674Z,29.20
2019-06-26T09:55:43.868Z,29.30
2019-06-26T09:58:14.090Z,29.50
2019-06-26T10:00:44.298Z,29.70
2019-06-26T10:03:14.602Z,29.80
2019-06-26T10:05:44.787Z,29.90
2019-06-26T10:08:15.012Z,30.00
2019-06-26T10:10:45.294Z,30.00
2019-06-26T10:13:15.544Z,30.00
2019-06-26T10:15:45.770Z,30.00
2019-06-26T10:18:16.087Z,30.00
2019-06-26T10:20:46.438Z,30.10
2019-06-26T10:23:16.711Z,30.10
2019-06-26T10:25:46.959Z,30.10
2019-06-26T10:28:17.207Z,30.10
2019-06-26T10:30:47.408Z,30.10
2019-06-26T10:33:17.822Z,30.20
2019-06-26T10:35:48.026Z,30.20
2019-06-26T10:38:18.258Z,30.30
2019-06-26T10:40:48.549Z,30.30
2019-06-26T10:43:18.821Z,30.30
2019-06-26T10:45:49.087Z,30.20
2019-06-26T10:48:19.372Z,30.20
2019-06-26T10:50:57.133Z,30.20
2019-06-26T10:53:21.482Z,30.20
2019-06-26T10:55:51.694Z,30.20
2019-06-26T10:58:21.973Z,30.30
2019-06-26T11:00:52.399Z,30.40
2019-06-26T11:03:22.602Z,30.50
2019-06-26T11:05:52.819Z,30.60
2019-06-26T11:08:23.051Z,30.60
2019-06-26T11:10:53.262Z,30.70
2019-06-26T11:13:23.494Z,30.80
2019-06-26T11:15:53.673Z,30.80
2019-06-26T11:18:23.947Z,30.80
2019-06-26T11:20:54.149Z,31.00
2019-06-26T11:23:24.376Z,31.00
2019-06-26T11:25:54.627Z,31.10
2019-06-26T11:28:24.917Z,31.20
2019-06-26T11:30:55.133Z,31.20
2019-06-26T11:33:25.381Z,31.30
2019-06-26T11:35:55.601Z,31.30
2019-06-26T11:38:26.021Z,31.40
2019-06-26T11:40:56.260Z,31.50
2019-06-26T11:43:26.542Z,31.50
2019-06-26T11:45:56.797Z,31.60
2019-06-26T11:48:27.025Z,31.70
2019-06-26T11:50:57.261Z,31.70
2019-06-26T11:53:27.715Z,31.80
2019-06-26T11:55:57.937Z,31.90
2019-06-26T11:58:28.135Z,31.90
2019-06-26T12:00:58.372Z,31.90
2019-06-26T12:03:28.567Z,32.00
2019-06-26T12:06:12.233Z,32.10
2019-06-26T12:08:30.782Z,32.10
2019-06-26T12:11:01.080Z,32.10
2019-06-26T12:13:33.404Z,32.10
2019-06-26T12:16:03.208Z,32.20
2019-06-26T12:18:33.491Z,32.30
2019-06-26T12:21:03.680Z,32.40
2019-06-26T12:23:33.904Z,32.50
2019-06-26T12:26:04.120Z,32.50
2019-06-26T12:28:34.315Z,32.50
2019-06-26T12:31:04.536Z,32.60
2019-06-26T12:33:34.718Z,32.60
2019-06-26T12:36:05.366Z,32.70
2019-06-26T12:38:35.603Z,32.70
2019-06-26T12:41:06.072Z,32.70
2019-06-26T12:43:36.286Z,32.80
2019-06-26T12:46:06.764Z,32.90
2019-06-26T12:48:36.977Z,32.90
2019-06-26T12:51:07.195Z,33.00
2019-06-26T12:53:37.498Z,33.00
2019-06-26T12:56:07.763Z,33.00
2019-06-26T12:58:37.986Z,33.00
2019-06-26T13:01:08.247Z,33.10
2019-06-26T13:03:38.473Z,33.10
2019-06-26T13:06:08.698Z,33.20
2019-06-26T13:08:39.157Z,33.20
2019-06-26T13:11:09.706Z,33.20
2019-06-26T13:13:39.934Z,33.20
2019-06-26T13:16:10.184Z,33.30
2019-06-26T13:18:40.444Z,33.30
2019-06-26T13:21:10.633Z,33.40
2019-06-26T13:23:40.899Z,33.50
2019-06-26T13:26:11.243Z,33.60
2019-06-26T13:28:41.566Z,33.80
2019-06-26T13:31:11.759Z,33.80
2019-06-26T13:33:41.986Z,34.00
2019-06-26T13:36:12.170Z,34.00
2019-06-26T13:38:42.134Z,34.20
2019-06-26T13:41:12.386Z,34.20
2019-06-26T13:43:42.702Z,34.30
2019-06-26T13:46:12.963Z,34.30
2019-06-26T13:48:43.224Z,34.40
2019-06-26T13:51:13.446Z,34.50
2019-06-26T13:53:43.690Z,34.50
2019-06-26T13:56:13.884Z,34.60
2019-06-26T13:58:44.133Z,34.70
2019-06-26T14:01:14.319Z,35.00
2019-06-26T14:03:44.557Z,36.90
2019-06-26T14:06:14.018Z,39.50
2019-06-26T14:08:43.452Z,41.80
2019-06-26T14:11:13.530Z,43.70
2019-06-26T14:13:43.798Z,45.40
2019-06-26T14:16:14.075Z,46.70
2019-06-26T14:18:44.340Z,47.50
2019-06-26T14:21:25.184Z,48.20
2019-06-26T14:23:46.527Z,48.80
2019-06-26T14:26:16.004Z,49.10
2019-06-26T14:28:46.107Z,49.70
2019-06-26T14:31:16.466Z,50.20
2019-06-26T14:33:46.689Z,50.70
2019-06-26T14:36:16.917Z,50.90
2019-06-26T14:38:47.127Z,50.90
2019-06-26T14:41:17.498Z,50.80
2019-06-26T14:43:47.754Z,50.30
2019-06-26T14:46:18.101Z,49.10
2019-06-26T14:48:48.343Z,48.30
2019-06-26T14:51:18.591Z,48.80
2019-06-26T14:53:48.888Z,49.80
2019-06-26T14:56:19.129Z,50.70
2019-06-26T14:58:49.354Z,51.50
2019-06-26T15:01:19.607Z,52.10
2019-06-26T15:03:49.915Z,52.30
2019-06-26T15:06:20.152Z,52.60
2019-06-26T15:08:50.422Z,53.10
2019-06-26T15:11:20.694Z,52.80
2019-06-26T15:13:50.959Z,52.80
2019-06-26T15:16:21.164Z,52.80
2019-06-26T15:18:51.461Z,52.80
2019-06-26T15:21:21.677Z,53.10
2019-06-26T15:23:51.900Z,53.30
2019-06-26T15:26:22.913Z,53.40
2019-06-26T15:28:53.135Z,53.50
2019-06-26T15:31:23.381Z,53.70
2019-06-26T15:33:53.592Z,54.00
2019-06-26T15:36:23.823Z,54.00
2019-06-26T15:38:54.076Z,53.90
2019-06-26T15:41:24.529Z,53.90
2019-06-26T15:43:54.742Z,54.10
2019-06-26T15:46:25.057Z,54.30
2019-06-26T15:48:55.222Z,54.40
2019-06-26T15:51:25.420Z,54.20
2019-06-26T15:53:55.640Z,53.90
2019-06-26T15:56:25.850Z,53.80
2019-06-26T15:58:56.627Z,53.20
2019-06-26T16:01:26.899Z,50.70
2019-06-26T16:03:57.167Z,48.00
2019-06-26T16:06:27.362Z,45.70
2019-06-26T16:08:57.673Z,43.90
2019-06-26T16:11:27.973Z,42.40
2019-06-26T16:13:59.255Z,41.30
2019-06-26T16:16:30.432Z,40.40
2019-06-26T16:19:04.955Z,39.60
2019-06-26T16:21:35.590Z,39.10
2019-06-26T16:24:06.279Z,38.60
2019-06-26T16:26:36.466Z,38.30
2019-06-26T16:29:06.679Z,38.10
2019-06-26T16:31:36.867Z,37.90
2019-06-26T16:34:07.242Z,37.70
2019-06-26T16:36:50.130Z,37.70
2019-06-26T16:39:21.991Z,37.60
2019-06-26T16:41:52.432Z,37.30
2019-06-26T16:44:22.645Z,37.10
2019-06-26T16:46:52.868Z,36.80
2019-06-26T16:49:23.133Z,36.60
2019-06-26T16:51:53.350Z,36.40
2019-06-26T16:54:23.634Z,36.40
2019-06-26T16:56:53.921Z,36.50
2019-06-26T16:59:24.165Z,36.40
2019-06-26T17:01:54.454Z,36.20
2019-06-26T17:04:24.689Z,36.00
2019-06-26T17:06:54.924Z,35.80
2019-06-26T17:09:25.371Z,35.80
2019-06-26T17:11:55.705Z,35.70
2019-06-26T17:14:31.908Z,36.00
2019-06-26T17:17:02.202Z,36.60
2019-06-26T17:19:32.440Z,36.70
2019-06-26T17:22:02.702Z,36.50
2019-06-26T17:24:32.965Z,36.10
2019-06-26T17:27:03.181Z,35.70
2019-06-26T17:29:33.411Z,35.40
2019-06-26T17:32:03.766Z,35.20
2019-06-26T17:34:33.997Z,35.00
2019-06-26T17:37:04.205Z,34.80
2019-06-26T17:39:34.456Z,34.60
2019-06-26T17:42:04.672Z,34.40
2019-06-26T17:44:34.946Z,34.30
2019-06-26T17:47:05.597Z,34.20
2019-06-26T17:49:35.843Z,34.10
2019-06-26T17:52:06.146Z,34.00
2019-06-26T17:54:36.352Z,34.00
2019-06-26T17:57:06.752Z,34.00
2019-06-26T17:59:56.583Z,34.00
2019-06-26T18:02:26.832Z,33.90
2019-06-26T18:04:57.053Z,33.70
2019-06-26T18:07:27.308Z,33.70
2019-06-26T18:09:57.552Z,33.50
2019-06-26T18:12:27.856Z,33.40
2019-06-26T18:14:58.145Z,33.40
2019-06-26T18:17:28.482Z,33.30
2019-06-26T18:19:58.670Z,33.20
2019-06-26T18:22:28.926Z,33.10
2019-06-26T18:24:59.161Z,33.00
2019-06-26T18:27:29.416Z,32.90
2019-06-26T18:29:59.636Z,32.80
2019-06-26T18:32:30.218Z,32.70
2019-06-26T18:35:00.458Z,32.60
2019-06-26T18:37:30.650Z,32.60
2019-06-26T18:40:00.902Z,32.50
2019-06-26T18:42:31.168Z,32.40
2019-06-26T18:45:01.415Z,32.30
2019-06-26T18:47:31.600Z,32.20
2019-06-26T18:50:01.848Z,32.20
2019-06-26T18:52:32.076Z,32.10
2019-06-26T18:55:02.416Z,32.00
2019-06-26T18:57:32.614Z,32.00
2019-06-26T19:00:03.605Z,31.90
2019-06-26T19:02:33.977Z,31.80
2019-06-26T19:05:06.835Z,31.80
2019-06-26T19:07:37.059Z,31.70
2019-06-26T19:10:09.058Z,31.70
2019-06-26T19:12:39.428Z,31.60
2019-06-26T19:15:10.844Z,31.50
2019-06-26T19:17:42.931Z,31.50
2019-06-26T19:20:14.414Z,31.40
2019-06-26T19:22:47.445Z,31.30
2019-06-26T19:25:16.826Z,31.30
2019-06-26T19:27:48.212Z,31.20
2019-06-26T19:30:19.800Z,31.20
2019-06-26T19:32:50.062Z,31.10
2019-06-26T19:35:20.640Z,31.10
2019-06-26T19:37:50.975Z,31.00
2019-06-26T19:40:24.003Z,31.00
2019-06-26T19:42:53.289Z,30.90
2019-06-26T19:45:23.862Z,30.80
2019-06-26T19:47:54.071Z,30.70
2019-06-26T19:50:24.407Z,30.70
2019-06-26T19:52:54.628Z,30.60
2019-06-26T19:55:25.709Z,30.60
2019-06-26T19:57:55.904Z,30.40
2019-06-26T20:00:26.215Z,30.30
2019-06-26T20:02:56.425Z,30.20
2019-06-26T20:05:26.707Z,30.20
2019-06-26T20:07:56.986Z,30.20
2019-06-26T20:10:27.298Z,30.20
2019-06-26T20:12:57.513Z,30.20
2019-06-26T20:15:27.748Z,30.10
2019-06-26T20:17:57.966Z,30.10
2019-06-26T20:20:28.189Z,30.00
2019-06-26T20:22:58.410Z,29.90
2019-06-26T20:25:28.644Z,29.70
2019-06-26T20:27:58.836Z,29.60
2019-06-26T20:30:33.066Z,29.40
2019-06-26T20:33:03.320Z,29.20
2019-06-26T20:35:33.545Z,29.10
2019-06-26T20:38:03.790Z,29.00
2019-06-26T20:40:34.102Z,28.80
2019-06-26T20:43:04.362Z,28.70
2019-06-26T20:45:34.587Z,28.60
2019-06-26T20:48:04.794Z,28.60
2019-06-26T20:50:34.997Z,28.50
2019-06-26T20:53:05.221Z,28.50
2019-06-26T20:55:35.493Z,28.40
2019-06-26T20:58:05.760Z,28.30
2019-06-26T21:00:35.974Z,28.30
2019-06-26T21:03:06.177Z,28.20
2019-06-26T21:05:36.429Z,28.10
2019-06-26T21:08:06.701Z,28.10
2019-06-26T21:10:36.910Z,28.00
2019-06-26T21:13:07.110Z,27.90
2019-06-26T21:15:37.568Z,27.90
2019-06-26T21:18:07.766Z,27.80
2019-06-26T21:20:37.954Z,27.80
2019-06-26T21:23:18.002Z,27.70
2019-06-26T21:25:40.241Z,27.70
2019-06-26T21:28:10.480Z,27.60
2019-06-26T21:30:40.690Z,27.50
2019-06-26T21:33:10.906Z,27.50
2019-06-26T21:35:41.108Z,27.50
2019-06-26T21:38:11.363Z,27.40
2019-06-26T21:40:41.586Z,27.40
2019-06-26T21:43:11.888Z,27.30
2019-06-26T21:45:42.103Z,27.30
2019-06-26T21:48:12.425Z,27.20
2019-06-26T21:50:42.646Z,27.20
2019-06-26T21:53:12.926Z,27.10
2019-06-26T21:55:43.150Z,27.10
2019-06-26T21:58:13.372Z,27.00
2019-06-26T22:00:43.959Z,27.00
2019-06-26T22:03:14.483Z,27.00
2019-06-26T22:05:44.703Z,26.90
2019-06-26T22:08:14.956Z,26.90
2019-06-26T22:10:45.175Z,26.90
2019-06-26T22:13:15.523Z,26.90
2019-06-26T22:15:45.786Z,26.80
2019-06-26T22:18:16.040Z,26.70
2019-06-26T22:20:46.265Z,26.70
2019-06-26T22:23:16.644Z,26.60
2019-06-26T22:25:51.272Z,26.60
2019-06-26T22:28:18.893Z,26.50
2019-06-26T22:30:49.100Z,26.40
2019-06-26T22:33:19.440Z,26.40
2019-06-26T22:35:49.767Z,26.30
2019-06-26T22:38:20.035Z,26.30
2019-06-26T22:40:50.285Z,26.30
2019-06-26T22:43:20.534Z,26.20
2019-06-26T22:45:50.778Z,26.10
2019-06-26T22:48:21.057Z,26.10
2019-06-26T22:50:51.280Z,26.00
2019-06-26T22:53:21.578Z,26.00
2019-06-26T22:56:06.667Z,25.90
2019-06-26T22:58:23.720Z,25.90
2019-06-26T23:00:53.951Z,25.90
2019-06-26T23:03:24.229Z,25.80
2019-06-26T23:05:54.462Z,25.80
2019-06-26T23:08:24.665Z,25.80
2019-06-26T23:10:54.865Z,25.70
2019-06-26T23:13:25.204Z,25.70
2019-06-26T23:15:55.379Z,25.70
2019-06-26T23:18:25.607Z,25.70
2019-06-26T23:20:55.813Z,25.70
2019-06-26T23:23:26.039Z,25.60
2019-06-26T23:25:56.887Z,25.60
2019-06-26T23:28:27.141Z,25.50
2019-06-26T23:30:57.380Z,25.50
2019-06-26T23:33:27.603Z,25.50
2019-06-26T23:35:57.830Z,25.50
2019-06-26T23:38:28.063Z,25.50
2019-06-26T23:40:58.295Z,25.50
2019-06-26T23:43:28.527Z,25.40
2019-06-26T23:45:58.723Z,25.40
2019-06-26T23:48:28.953Z,25.40
2019-06-26T23:50:59.147Z,25.30
2019-06-26T23:53:29.377Z,25.40
2019-06-26T23:55:59.641Z,25.30
2019-06-26T23:58:29.847Z,25.30
